Time;durP1;ratioP1;P1;durP2;ratioP2;P2;SDS_P1;SDS_P2;PMS_P1;PMS_P2;Temp;Humidity;BMP_temperature;BMP_pressure;BME280_temperature;BME280_humidity;BME280_pressure;Samples;Min_cycle;Max_cycle;Signal;HPM_P1;HPM_P2
2023/01/01 00:00:16;;;;;;;17.52;11.10;;;13.30;99.90;;;;;;5096734;28;20050;-64
2023/01/01 00:02:42;;;;;;;18.83;12.20;;;13.30;99.90;;;;;;5078764;28;20070;-65
2023/01/01 00:05:08;;;;;;;15.82;12.60;;;13.30;99.90;;;;;;5078810;28;20043;-64
2023/01/01 00:07:34;;;;;;;19.65;11.60;;;13.30;99.90;;;;;;5097234;28;20063;-64
2023/01/01 00:12:43;;;;;;;17.73;9.05;;;13.20;99.90;;;;;;5096603;28;20047;-64
2023/01/01 00:15:09;;;;;;;16.55;8.98;;;13.10;99.90;;;;;;5096452;28;20044;-64
2023/01/01 00:17:35;;;;;;;19.70;11.35;;;13.10;99.90;;;;;;5096364;28;20396;-64
2023/01/01 00:20:00;;;;;;;20.95;11.45;;;13.00;99.90;;;;;;5096421;28;20040;-64
2023/01/01 00:22:26;;;;;;;21.63;12.88;;;13.00;99.90;;;;;;5096897;28;20051;-64
2023/01/01 00:24:52;;;;;;;20.73;11.52;;;12.90;99.90;;;;;;5078822;28;20055;-64
2023/01/01 00:27:17;;;;;;;19.35;10.75;;;12.90;99.90;;;;;;5096301;28;20040;-65
2023/01/01 00:29:43;;;;;;;23.13;11.38;;;12.80;99.90;;;;;;5078504;28;20364;-65
2023/01/01 00:32:11;;;;;;;20.60;12.98;;;12.80;99.90;;;;;;5078149;28;20467;-64
2023/01/01 00:34:36;;;;;;;24.20;13.48;;;12.80;99.90;;;;;;5078908;28;20135;-64
2023/01/01 00:37:02;;;;;;;20.50;12.52;;;12.70;99.90;;;;;;5096613;28;20139;-65
2023/01/01 00:39:28;;;;;;;21.85;12.52;;;12.70;99.90;;;;;;5096098;28;20467;-64
2023/01/01 00:41:54;;;;;;;19.63;11.77;;;12.70;99.90;;;;;;5096056;28;20475;-65
2023/01/01 00:44:19;;;;;;;19.55;11.68;;;12.60;99.90;;;;;;5095979;28;20040;-65
2023/01/01 00:46:45;;;;;;;19.40;12.63;;;12.60;99.90;;;;;;5095911;28;20050;-65
2023/01/01 00:49:10;;;;;;;23.48;13.18;;;12.60;99.90;;;;;;5095993;28;20036;-64
2023/01/01 00:51:36;;;;;;;21.08;13.45;;;12.60;99.90;;;;;;5077682;28;20052;-64
2023/01/01 00:54:02;;;;;;;25.48;14.85;;;12.60;99.90;;;;;;5078296;28;20056;-65
2023/01/01 00:56:28;;;;;;;21.95;13.77;;;12.60;99.90;;;;;;5078114;28;20117;-65
2023/01/01 00:58:53;;;;;;;23.90;16.08;;;12.50;99.90;;;;;;5096483;28;20044;-65
2023/01/01 01:01:19;;;;;;;28.38;18.50;;;12.50;99.90;;;;;;5095633;28;20040;-65
2023/01/01 01:03:45;;;;;;;23.95;18.63;;;12.50;99.90;;;;;;5095558;28;20396;-65
2023/01/01 01:06:11;;;;;;;29.83;20.60;;;12.50;99.90;;;;;;5094976;28;20105;-64
2023/01/01 01:08:45;;;;;;;31.63;21.20;;;12.50;99.90;;;;;;5077760;28;20051;-64
2023/01/01 01:11:17;;;;;;;24.08;17.52;;;12.40;99.90;;;;;;5096408;28;20040;-65
2023/01/01 01:13:45;;;;;;;29.87;20.30;;;12.40;99.90;;;;;;5095461;28;20052;-65
2023/01/01 01:16:14;;;;;;;28.52;18.67;;;12.40;99.90;;;;;;5060345;28;20083;-65
2023/01/01 01:18:40;;;;;;;25.67;17.13;;;12.40;99.90;;;;;;5077480;28;20055;-65
2023/01/01 01:21:06;;;;;;;27.35;18.40;;;12.50;99.90;;;;;;5095334;28;20118;-65
2023/01/01 01:23:32;;;;;;;26.45;18.15;;;12.50;99.90;;;;;;5077584;28;20043;-66
2023/01/01 01:26:16;;;;;;;25.95;17.83;;;12.50;99.90;;;;;;5077098;28;20082;-66
2023/01/01 01:28:43;;;;;;;29.35;20.27;;;12.60;99.90;;;;;;5061509;28;20452;-65
2023/01/01 01:31:09;;;;;;;25.92;17.40;;;12.60;99.90;;;;;;5095114;28;20131;-66
2023/01/01 01:33:35;;;;;;;30.88;19.92;;;12.70;99.90;;;;;;5095056;28;20048;-64
2023/01/01 01:36:02;;;;;;;29.13;18.38;;;12.70;99.90;;;;;;5094589;28;20089;-65
2023/01/01 01:38:27;;;;;;;25.10;18.95;;;12.80;99.90;;;;;;5076889;28;20119;-65
2023/01/01 01:40:53;;;;;;;33.20;20.67;;;12.80;99.90;;;;;;5077024;28;20087;-65
2023/01/01 01:43:41;;;;;;;25.48;19.52;;;12.90;99.90;;;;;;5094886;28;20040;-65
2023/01/01 01:46:19;;;;;;;28.58;20.77;;;12.90;99.90;;;;;;5093427;28;20047;-65
2023/01/01 01:48:50;;;;;;;29.25;20.83;;;12.90;99.90;;;;;;5094800;28;20094;-65
2023/01/01 01:51:25;;;;;;;27.58;20.27;;;12.90;99.90;;;;;;5094346;28;20091;-65
2023/01/01 01:53:55;;;;;;;31.83;22.17;;;12.80;99.90;;;;;;5094422;28;20519;-66
2023/01/01 01:56:42;;;;;;;32.35;22.33;;;12.80;99.90;;;;;;5094798;28;20062;-65
2023/01/01 01:59:08;;;;;;;27.75;20.83;;;12.70;99.90;;;;;;5095421;28;20113;-66
2023/01/01 02:01:34;;;;;;;28.98;19.80;;;12.70;99.90;;;;;;5095077;28;20468;-64
2023/01/01 02:04:01;;;;;;;32.97;21.02;;;12.70;99.90;;;;;;5094430;28;20119;-65
2023/01/01 02:06:29;;;;;;;30.33;22.35;;;12.60;99.90;;;;;;5094876;28;20054;-65
2023/01/01 02:08:56;;;;;;;28.30;19.80;;;12.60;99.90;;;;;;5094260;28;20047;-65
2023/01/01 02:11:22;;;;;;;28.92;21.20;;;12.50;99.90;;;;;;5076274;28;20132;-65
2023/01/01 02:13:49;;;;;;;32.30;21.08;;;12.60;99.90;;;;;;5076264;28;20523;-65
2023/01/01 02:16:33;;;;;;;31.77;21.98;;;12.60;99.90;;;;;;5076251;28;20395;-65
2023/01/01 02:19:04;;;;;;;30.05;20.35;;;12.60;99.90;;;;;;5094494;28;20475;-65
2023/01/01 02:21:52;;;;;;;33.30;21.05;;;12.50;99.90;;;;;;5076096;28;20088;-65
2023/01/01 02:24:35;;;;;;;31.05;21.98;;;12.50;99.90;;;;;;5092552;28;20044;-66
2023/01/01 02:27:15;;;;;;;30.00;22.20;;;12.50;99.90;;;;;;5094164;28;20040;-65
2023/01/01 02:29:44;;;;;;;29.40;19.25;;;12.50;99.90;;;;;;5094661;28;20083;-65
2023/01/01 02:32:47;;;;;;;28.80;18.38;;;12.50;99.90;;;;;;5094791;28;20113;-65
2023/01/01 02:35:37;;;;;;;27.80;18.48;;;12.50;99.90;;;;;;5052032;28;20087;-66
2023/01/01 02:38:31;;;;;;;29.33;17.35;;;12.50;99.90;;;;;;5076555;28;20055;-65
2023/01/01 02:41:01;;;;;;;24.38;16.67;;;12.60;99.90;;;;;;5091360;28;20098;-65
2023/01/01 02:43:27;;;;;;;26.38;18.13;;;12.60;99.90;;;;;;5093829;28;20091;-65
2023/01/01 02:45:53;;;;;;;22.40;16.15;;;12.60;99.90;;;;;;5093757;28;20087;-65
2023/01/01 02:48:38;;;;;;;23.42;16.50;;;12.60;99.90;;;;;;5076250;28;20054;-65
2023/01/01 02:51:27;;;;;;;23.02;16.02;;;12.60;99.90;;;;;;5075461;28;20060;-65
2023/01/01 02:54:05;;;;;;;23.70;14.52;;;12.60;99.90;;;;;;5075804;28;20048;-66
2023/01/01 02:56:39;;;;;;;23.58;14.07;;;12.70;99.90;;;;;;5093697;28;20080;-65
2023/01/01 03:02:26;;;;;;;21.27;12.63;;;12.60;99.90;;;;;;5093942;28;20040;-65
2023/01/01 03:05:00;;;;;;;19.75;11.48;;;12.70;99.90;;;;;;5093661;28;20055;-65
2023/01/01 03:07:40;;;;;;;16.33;10.93;;;12.70;99.90;;;;;;5093254;28;20040;-65
2023/01/01 03:10:16;;;;;;;17.50;9.80;;;12.80;99.90;;;;;;5093586;28;20127;-65
2023/01/01 03:12:54;;;;;;;21.02;10.23;;;12.70;99.90;;;;;;5076490;28;20055;-65
2023/01/01 03:15:34;;;;;;;19.27;9.10;;;12.80;99.90;;;;;;5093743;28;20371;-65
2023/01/01 03:18:10;;;;;;;14.70;8.20;;;12.80;99.90;;;;;;5094042;28;20443;-65
2023/01/01 03:20:42;;;;;;;17.73;7.40;;;12.80;99.90;;;;;;5097593;28;20101;-65
2023/01/01 03:23:15;;;;;;;14.95;6.85;;;12.80;99.90;;;;;;5097627;28;20048;-64
2023/01/01 03:25:47;;;;;;;13.50;7.43;;;12.90;99.90;;;;;;5098444;28;20106;-64
2023/01/01 03:28:21;;;;;;;11.75;6.78;;;12.90;99.90;;;;;;5097756;28;20480;-64
2023/01/01 03:30:49;;;;;;;10.43;6.25;;;12.90;99.90;;;;;;5098275;28;20357;-65
2023/01/01 03:33:28;;;;;;;12.68;5.85;;;12.90;99.90;;;;;;5097363;28;20052;-64
2023/01/01 03:36:05;;;;;;;15.63;6.63;;;12.90;99.90;;;;;;5098109;28;20376;-64
2023/01/01 03:38:34;;;;;;;9.68;5.78;;;12.90;99.90;;;;;;5097256;28;20052;-65
2023/01/01 03:41:18;;;;;;;13.63;5.72;;;12.90;99.90;;;;;;5079543;28;20044;-65
2023/01/01 03:43:55;;;;;;;14.15;5.63;;;13.00;99.90;;;;;;5097201;28;20055;-65
2023/01/01 03:46:27;;;;;;;9.93;4.75;;;13.00;99.90;;;;;;5097649;28;20083;-64
2023/01/01 03:48:57;;;;;;;6.72;3.85;;;13.00;99.90;;;;;;5097187;28;20480;-64
2023/01/01 03:51:34;;;;;;;9.00;3.25;;;13.00;99.90;;;;;;5062588;28;20062;-65
2023/01/01 03:54:09;;;;;;;9.95;3.78;;;13.10;99.90;;;;;;5097088;28;20139;-65
2023/01/01 03:56:41;;;;;;;7.63;3.00;;;13.10;99.90;;;;;;5096899;28;20044;-65
2023/01/01 03:59:39;;;;;;;10.43;3.15;;;13.10;99.90;;;;;;5096940;28;20048;-65
2023/01/01 04:02:10;;;;;;;9.75;3.50;;;13.10;99.90;;;;;;5063218;28;20115;-66
2023/01/01 04:04:36;;;;;;;7.85;3.00;;;13.10;99.90;;;;;;5078825;28;20083;-66
2023/01/01 04:07:02;;;;;;;8.63;3.28;;;13.10;99.90;;;;;;5078647;28;20052;-65
2023/01/01 04:09:32;;;;;;;10.15;3.65;;;13.00;99.90;;;;;;5096723;28;20056;-65
2023/01/01 04:12:03;;;;;;;11.57;3.03;;;12.90;99.90;;;;;;5097516;28;20063;-65
2023/01/01 04:14:32;;;;;;;8.02;3.63;;;12.70;99.90;;;;;;5097517;28;20047;-65
2023/01/01 04:16:58;;;;;;;7.82;3.67;;;12.60;99.90;;;;;;5078324;28;20036;-65
2023/01/01 04:19:24;;;;;;;8.57;3.40;;;12.50;99.90;;;;;;5078381;28;20052;-65
2023/01/01 04:21:50;;;;;;;10.25;3.80;;;12.40;99.90;;;;;;5096441;28;20051;-65
2023/01/01 04:24:16;;;;;;;9.43;3.63;;;12.30;99.90;;;;;;5096394;28;20063;-64
2023/01/01 04:26:41;;;;;;;9.82;4.38;;;12.30;99.90;;;;;;5097134;28;20072;-66
2023/01/01 04:29:07;;;;;;;10.05;4.13;;;12.20;99.90;;;;;;5096298;28;20577;-66
2023/01/01 04:31:34;;;;;;;11.65;4.18;;;12.10;99.90;;;;;;5077925;28;20036;-65
2023/01/01 04:34:00;;;;;;;13.02;4.55;;;12.10;99.90;;;;;;5077887;28;20460;-65
2023/01/01 04:36:26;;;;;;;9.85;4.63;;;12.10;99.90;;;;;;5096359;28;20047;-65
2023/01/01 04:38:52;;;;;;;10.13;4.72;;;12.00;99.90;;;;;;5096113;28;20476;-65
2023/01/01 04:41:17;;;;;;;9.43;3.53;;;12.00;99.90;;;;;;5096097;28;20044;-65
2023/01/01 04:43:49;;;;;;;12.35;3.65;;;11.90;99.90;;;;;;5078598;28;20122;-65
2023/01/01 04:46:16;;;;;;;10.93;3.92;;;11.90;99.90;;;;;;5096076;28;20044;-65
2023/01/01 04:48:42;;;;;;;8.88;4.00;;;11.90;99.90;;;;;;5096588;28;20456;-66
2023/01/01 04:51:10;;;;;;;9.68;4.03;;;11.90;99.90;;;;;;5096023;28;20125;-65
2023/01/01 04:53:35;;;;;;;8.95;3.30;;;11.80;99.90;;;;;;5095849;28;20075;-65
2023/01/01 04:56:08;;;;;;;7.47;3.53;;;11.80;99.90;;;;;;5077430;28;20519;-65
2023/01/01 04:58:36;;;;;;;10.38;3.53;;;11.80;99.90;;;;;;5095883;28;20120;-65
2023/01/01 05:01:12;;;;;;;7.93;3.00;;;11.80;99.90;;;;;;5096066;28;20044;-64
2023/01/01 05:03:38;;;;;;;7.68;3.35;;;11.80;99.90;;;;;;5077846;28;20055;-64
2023/01/01 05:06:06;;;;;;;10.27;3.05;;;11.80;99.90;;;;;;5078007;28;20048;-65
2023/01/01 05:08:34;;;;;;;8.75;3.38;;;11.80;99.90;;;;;;5095697;28;20416;-65
2023/01/01 05:11:05;;;;;;;6.32;2.83;;;11.80;99.90;;;;;;5095977;28;20044;-65
2023/01/01 05:13:32;;;;;;;8.13;3.20;;;11.80;99.90;;;;;;5095679;28;20046;-65
2023/01/01 05:16:02;;;;;;;8.70;2.65;;;11.80;99.90;;;;;;5096245;28;20441;-65
2023/01/01 05:18:28;;;;;;;7.95;2.28;;;11.80;99.90;;;;;;5095741;28;20051;-66
2023/01/01 05:21:06;;;;;;;8.35;2.22;;;11.80;99.90;;;;;;5095478;28;20048;-65
2023/01/01 05:23:31;;;;;;;5.32;1.58;;;11.90;99.90;;;;;;5096323;28;20400;-65
2023/01/01 05:25:57;;;;;;;5.97;1.88;;;12.00;99.90;;;;;;5077382;28;20036;-65
2023/01/01 05:28:24;;;;;;;6.15;1.40;;;12.00;99.90;;;;;;5095613;28;20079;-65
2023/01/01 05:30:53;;;;;;;7.00;1.50;;;12.10;99.90;;;;;;5077224;28;20044;-66
2023/01/01 05:33:19;;;;;;;5.20;1.27;;;12.10;99.90;;;;;;5095152;28;20160;-65
2023/01/01 05:35:45;;;;;;;3.60;1.13;;;12.10;99.90;;;;;;5094961;28;20044;-66
2023/01/01 05:38:10;;;;;;;3.22;1.33;;;12.20;99.90;;;;;;5095047;28;20115;-65
2023/01/01 05:40:39;;;;;;;6.72;1.20;;;12.20;99.90;;;;;;5076962;28;20492;-66
2023/01/01 05:43:06;;;;;;;3.75;0.98;;;12.20;99.90;;;;;;5075914;28;20096;-65
2023/01/01 05:45:32;;;;;;;5.00;1.23;;;12.30;99.90;;;;;;5094767;28;20047;-65
2023/01/01 05:47:57;;;;;;;6.32;1.40;;;12.30;99.90;;;;;;5094780;28;20055;-65
2023/01/01 05:50:23;;;;;;;7.18;1.58;;;12.20;99.90;;;;;;5077387;28;20047;-65
2023/01/01 05:52:49;;;;;;;6.20;1.40;;;12.30;99.90;;;;;;5094735;28;20454;-65
2023/01/01 05:55:16;;;;;;;4.82;1.23;;;12.30;99.90;;;;;;5094668;28;20135;-65
2023/01/01 05:57:41;;;;;;;5.03;1.02;;;12.30;99.90;;;;;;5095834;28;20086;-65
2023/01/01 06:00:08;;;;;;;6.03;1.20;;;12.30;99.90;;;;;;5094724;28;20412;-65
2023/01/01 06:02:33;;;;;;;4.35;0.95;;;12.30;99.90;;;;;;5076756;28;20462;-65
2023/01/01 06:04:59;;;;;;;4.50;1.02;;;12.40;99.90;;;;;;5094622;28;20066;-65
2023/01/01 06:07:24;;;;;;;2.65;0.88;;;12.40;99.90;;;;;;5094911;28;20463;-65
2023/01/01 06:09:50;;;;;;;3.28;0.80;;;12.40;99.90;;;;;;5060845;28;20047;-67
2023/01/01 06:12:16;;;;;;;6.20;1.15;;;12.40;99.90;;;;;;5076914;28;20043;-65
2023/01/01 06:14:41;;;;;;;2.70;1.08;;;12.40;99.90;;;;;;5094434;28;20044;-65
2023/01/01 06:17:07;;;;;;;3.58;0.80;;;12.40;99.90;;;;;;5094230;28;20051;-65
2023/01/01 06:19:33;;;;;;;3.50;0.82;;;12.30;99.90;;;;;;5059865;28;20036;-66
2023/01/01 06:21:58;;;;;;;4.28;0.98;;;12.40;99.90;;;;;;5059847;28;20046;-66
2023/01/01 06:24:24;;;;;;;5.53;0.82;;;12.30;99.90;;;;;;5094305;28;20044;-66
2023/01/01 06:26:50;;;;;;;7.65;0.90;;;12.30;99.90;;;;;;5094238;28;20087;-66
2023/01/01 06:29:15;;;;;;;3.15;0.70;;;12.30;99.90;;;;;;5076232;28;20051;-66
2023/01/01 06:31:41;;;;;;;3.85;1.00;;;12.30;99.90;;;;;;5094173;28;20044;-66
2023/01/01 06:34:07;;;;;;;3.45;0.82;;;12.30;99.90;;;;;;5094107;28;20491;-66
2023/01/01 06:36:33;;;;;;;3.08;0.80;;;12.30;99.90;;;;;;5076122;28;20043;-66
2023/01/01 06:38:59;;;;;;;3.33;0.70;;;12.30;99.90;;;;;;5076877;28;20097;-66
2023/01/01 06:41:26;;;;;;;2.55;0.68;;;12.20;99.90;;;;;;5060356;28;20079;-66
2023/01/01 06:43:54;;;;;;;2.97;0.65;;;12.20;99.90;;;;;;5093966;28;20484;-66
2023/01/01 06:46:25;;;;;;;2.38;0.47;;;12.20;99.90;;;;;;5094543;28;20036;-66
2023/01/01 06:48:57;;;;;;;3.53;0.70;;;12.20;99.90;;;;;;5093975;28;20044;-66
2023/01/01 06:51:25;;;;;;;1.73;0.50;;;12.30;99.90;;;;;;5093755;28;20485;-66
2023/01/01 06:53:51;;;;;;;2.80;0.85;;;12.20;99.90;;;;;;5093550;28;20058;-68
2023/01/01 06:56:18;;;;;;;1.80;0.50;;;12.20;99.90;;;;;;5093761;28;20040;-67
2023/01/01 06:58:44;;;;;;;4.32;0.50;;;12.20;99.90;;;;;;5076039;28;20052;-67
2023/01/01 07:01:15;;;;;;;3.17;0.55;;;12.20;99.90;;;;;;5093798;28;20373;-66
2023/01/01 07:03:41;;;;;;;4.47;0.50;;;12.20;99.90;;;;;;5093758;28;20051;-66
2023/01/01 07:06:08;;;;;;;3.42;0.50;;;12.10;99.90;;;;;;5093797;28;20101;-67
2023/01/01 07:08:34;;;;;;;5.15;0.65;;;12.10;99.90;;;;;;5075911;28;20048;-66
2023/01/01 07:11:01;;;;;;;1.35;0.35;;;12.10;99.90;;;;;;5093653;28;20040;-66
2023/01/01 07:13:28;;;;;;;4.22;0.80;;;12.10;99.90;;;;;;5093656;28;20055;-67
2023/01/01 07:15:54;;;;;;;3.15;0.77;;;12.10;99.90;;;;;;5075593;28;20166;-66
2023/01/01 07:18:20;;;;;;;4.05;0.43;;;12.00;99.90;;;;;;5093637;28;20494;-66
2023/01/01 07:21:01;;;;;;;1.73;0.30;;;12.00;99.90;;;;;;5093342;28;20549;-66
2023/01/01 07:23:28;;;;;;;4.60;0.60;;;12.00;99.90;;;;;;5094353;28;20056;-66
2023/01/01 07:25:54;;;;;;;3.78;0.50;;;11.90;99.90;;;;;;5075657;28;20044;-66
2023/01/01 07:28:22;;;;;;;4.40;0.52;;;11.90;99.90;;;;;;5093423;28;20044;-65
2023/01/01 07:30:48;;;;;;;4.20;0.40;;;11.90;99.90;;;;;;5075875;28;20036;-66
2023/01/01 07:33:17;;;;;;;3.55;0.60;;;11.90;99.90;;;;;;5076552;28;20048;-66
2023/01/01 07:35:46;;;;;;;5.40;0.70;;;11.90;99.90;;;;;;5093364;28;20143;-65
2023/01/01 07:38:17;;;;;;;3.08;0.80;;;11.90;99.90;;;;;;5093187;28;20472;-67
2023/01/01 07:40:43;;;;;;;3.40;0.60;;;11.90;99.90;;;;;;5094328;28;20412;-66
2023/01/01 07:43:11;;;;;;;5.28;0.70;;;11.90;99.90;;;;;;5093661;28;20127;-66
2023/01/01 07:45:37;;;;;;;4.90;0.80;;;11.90;99.90;;;;;;5093387;28;20044;-66
2023/01/01 07:48:02;;;;;;;5.50;0.85;;;11.90;99.90;;;;;;5093643;28;20048;-65
2023/01/01 07:50:30;;;;;;;4.05;0.85;;;11.80;99.90;;;;;;5093125;28;20520;-65
2023/01/01 07:52:56;;;;;;;5.75;0.88;;;11.80;99.90;;;;;;5093916;28;20048;-66
2023/01/01 07:55:22;;;;;;;3.97;0.70;;;11.80;99.90;;;;;;5093313;28;20439;-66
2023/01/01 07:57:48;;;;;;;6.53;1.35;;;11.80;99.90;;;;;;5093278;28;20040;-65
2023/01/01 08:00:17;;;;;;;3.92;0.77;;;11.80;99.90;;;;;;5093301;28;20040;-66
2023/01/01 08:02:44;;;;;;;5.82;0.90;;;11.80;99.90;;;;;;5093054;28;20044;-65
2023/01/01 08:05:10;;;;;;;4.20;0.70;;;11.70;99.90;;;;;;5093160;28;20079;-65
2023/01/01 08:07:36;;;;;;;6.13;0.80;;;11.70;99.90;;;;;;5078908;28;20051;-67
2023/01/01 08:10:04;;;;;;;7.25;1.75;;;11.80;99.90;;;;;;5078797;28;20056;-65
2023/01/01 08:12:30;;;;;;;5.10;0.90;;;11.70;99.90;;;;;;5078596;28;20479;-65
2023/01/01 08:14:55;;;;;;;4.20;1.20;;;11.70;99.90;;;;;;5078329;28;20040;-65
2023/01/01 08:17:21;;;;;;;6.03;1.00;;;11.70;99.90;;;;;;5096439;28;20085;-65
2023/01/01 08:19:48;;;;;;;6.82;0.80;;;11.60;99.90;;;;;;5062791;28;20097;-66
2023/01/01 08:22:14;;;;;;;4.70;0.90;;;11.60;99.90;;;;;;5096521;28;20048;-66
2023/01/01 08:24:40;;;;;;;7.10;0.98;;;11.60;99.90;;;;;;5096483;28;20044;-65
2023/01/01 08:27:06;;;;;;;7.88;1.00;;;11.60;99.90;;;;;;5096955;28;20040;-65
2023/01/01 08:29:32;;;;;;;6.68;0.98;;;11.60;99.90;;;;;;5078875;28;20480;-65
2023/01/01 08:31:58;;;;;;;8.70;1.00;;;11.60;99.90;;;;;;5096328;28;20480;-65
2023/01/01 08:34:23;;;;;;;8.48;0.90;;;11.60;99.90;;;;;;5096517;28;20131;-65
2023/01/01 08:36:49;;;;;;;3.60;1.00;;;11.60;99.90;;;;;;5096773;28;20460;-66
2023/01/01 08:39:15;;;;;;;4.85;0.88;;;11.60;99.90;;;;;;5096672;28;20070;-67
2023/01/01 08:41:41;;;;;;;4.60;0.93;;;11.60;99.90;;;;;;5096158;28;20260;-65
2023/01/01 08:44:06;;;;;;;4.93;0.90;;;11.60;99.90;;;;;;5095760;28;20055;-65
2023/01/01 08:46:32;;;;;;;7.45;1.00;;;11.60;99.90;;;;;;5078330;28;20056;-65
2023/01/01 08:48:58;;;;;;;4.55;1.05;;;11.50;99.90;;;;;;5095983;28;20087;-66
2023/01/01 08:51:24;;;;;;;6.53;0.90;;;11.60;99.90;;;;;;5077688;28;20059;-65
2023/01/01 08:53:49;;;;;;;5.72;0.88;;;11.60;99.90;;;;;;5095561;28;20048;-66
2023/01/01 08:56:15;;;;;;;5.07;0.77;;;11.50;99.90;;;;;;5096297;28;20047;-66
2023/01/01 08:58:41;;;;;;;12.10;0.90;;;11.60;99.90;;;;;;5077757;28;20442;-65
2023/01/01 09:01:08;;;;;;;10.73;1.38;;;11.60;99.90;;;;;;5096250;28;20040;-65
2023/01/01 09:03:34;;;;;;;8.15;1.00;;;11.60;99.90;;;;;;5077832;28;20048;-65
2023/01/01 09:06:00;;;;;;;6.28;1.30;;;11.60;99.90;;;;;;5096459;28;20422;-65
2023/01/01 09:08:26;;;;;;;6.82;1.08;;;11.60;99.90;;;;;;5095577;28;20040;-65
2023/01/01 09:10:56;;;;;;;4.70;1.10;;;11.60;99.90;;;;;;5095526;28;20103;-65
2023/01/01 09:13:21;;;;;;;6.30;1.20;;;11.60;99.90;;;;;;5095436;28;20044;-65
2023/01/01 09:15:47;;;;;;;7.03;0.93;;;11.60;99.90;;;;;;5077268;28;20147;-65
2023/01/01 09:18:13;;;;;;;7.75;1.17;;;11.50;99.90;;;;;;5095202;28;20052;-65
2023/01/01 09:20:39;;;;;;;8.13;1.38;;;11.80;99.90;;;;;;5095098;28;20399;-66
2023/01/01 09:23:06;;;;;;;9.13;2.08;;;11.50;99.90;;;;;;5094975;28;20373;-65
2023/01/01 09:25:33;;;;;;;7.57;1.08;;;11.50;99.90;;;;;;5095264;28;20048;-65
2023/01/01 09:28:01;;;;;;;7.30;1.30;;;11.50;99.90;;;;;;5077061;28;20087;-65
2023/01/01 09:30:27;;;;;;;6.40;0.98;;;11.50;99.90;;;;;;5095132;28;20048;-66
2023/01/01 09:32:53;;;;;;;5.40;0.90;;;11.50;99.90;;;;;;5077018;28;20048;-66
2023/01/01 09:35:19;;;;;;;10.32;1.20;;;11.60;99.90;;;;;;5077325;28;20100;-65
2023/01/01 09:37:44;;;;;;;5.25;1.00;;;11.60;99.90;;;;;;5094942;28;20488;-65
2023/01/01 09:40:51;;;;;;;9.40;1.45;;;11.60;99.90;;;;;;5094640;28;20079;-65
2023/01/01 09:43:59;;;;;;;8.65;0.90;;;11.60;99.90;;;;;;5094540;28;20055;-66
2023/01/01 09:46:25;;;;;;;7.13;1.50;;;11.50;99.90;;;;;;5084034;28;20048;-66
2023/01/01 09:49:08;;;;;;;5.65;1.00;;;11.60;99.90;;;;;;5094492;28;20101;-66
2023/01/01 09:51:36;;;;;;;9.52;1.52;;;11.50;99.90;;;;;;5076256;28;20060;-67
2023/01/01 09:54:22;;;;;;;6.85;1.15;;;11.50;99.90;;;;;;5094412;28;20581;-67
2023/01/01 09:56:53;;;;;;;7.78;1.50;;;11.50;99.90;;;;;;5094346;28;20040;-67
2023/01/01 09:59:19;;;;;;;7.28;1.10;;;11.50;99.90;;;;;;5094324;28;20040;-67
2023/01/01 10:01:58;;;;;;;7.90;1.00;;;11.50;99.90;;;;;;5093872;28;20059;-67
2023/01/01 10:05:05;;;;;;;9.35;0.90;;;11.50;99.90;;;;;;5094860;28;20076;-67
2023/01/01 10:07:34;;;;;;;7.35;1.13;;;11.50;99.90;;;;;;5094117;28;20048;-67
2023/01/01 10:10:30;;;;;;;5.18;1.10;;;11.50;99.90;;;;;;5075995;28;20475;-65
2023/01/01 10:13:14;;;;;;;8.98;1.08;;;11.60;99.90;;;;;;5094008;28;20047;-65
2023/01/01 10:15:51;;;;;;;5.72;0.80;;;11.50;99.90;;;;;;5094409;28;20459;-67
2023/01/01 10:18:23;;;;;;;6.70;1.25;;;11.50;99.90;;;;;;5095024;28;20176;-66
2023/01/01 10:21:19;;;;;;;6.95;1.27;;;11.50;99.90;;;;;;5094233;28;20048;-67
2023/01/01 10:23:48;;;;;;;7.10;0.90;;;11.60;99.90;;;;;;5094374;28;20044;-66
2023/01/01 10:26:20;;;;;;;7.85;1.10;;;11.60;99.90;;;;;;5093741;28;20048;-66
2023/01/01 10:29:04;;;;;;;7.18;0.90;;;11.50;99.90;;;;;;5093674;28;20084;-66
2023/01/01 10:31:35;;;;;;;8.07;0.90;;;11.50;99.90;;;;;;5093718;28;20052;-65
2023/01/01 10:34:24;;;;;;;6.53;1.38;;;11.50;99.90;;;;;;5093625;28;20055;-65
2023/01/01 10:36:56;;;;;;;9.30;0.90;;;11.50;99.90;;;;;;5094271;28;20172;-65
2023/01/01 10:39:22;;;;;;;8.68;1.10;;;11.50;99.90;;;;;;5093538;28;20131;-66
2023/01/01 10:41:48;;;;;;;7.07;1.13;;;11.50;99.90;;;;;;5094024;28;20044;-65
2023/01/01 10:44:27;;;;;;;10.68;1.35;;;11.50;99.90;;;;;;5075913;28;20052;-65
2023/01/01 10:46:57;;;;;;;8.30;2.20;;;11.50;99.90;;;;;;5094153;28;20036;-65
2023/01/01 10:49:23;;;;;;;10.45;2.15;;;11.50;99.90;;;;;;5093346;28;20058;-66
2023/01/01 10:51:51;;;;;;;7.13;1.20;;;11.50;99.90;;;;;;5094087;28;20051;-67
2023/01/01 10:54:39;;;;;;;5.15;0.82;;;11.50;99.90;;;;;;5093307;28;20088;-66
2023/01/01 10:57:19;;;;;;;5.90;0.82;;;11.40;99.90;;;;;;5093881;28;20089;-65
2023/01/01 10:59:45;;;;;;;7.78;0.88;;;11.40;99.90;;;;;;5093818;28;20059;-65
2023/01/01 11:02:16;;;;;;;7.38;0.88;;;11.40;99.90;;;;;;5093472;28;20044;-65
2023/01/01 11:04:42;;;;;;;6.35;0.90;;;11.40;99.90;;;;;;5093193;28;20048;-66
2023/01/01 11:07:08;;;;;;;8.02;1.02;;;11.30;99.90;;;;;;5093970;28;20043;-65
2023/01/01 11:09:38;;;;;;;6.20;1.00;;;11.30;99.90;;;;;;5075456;28;20098;-66
2023/01/01 11:12:16;;;;;;;5.68;0.80;;;11.30;99.90;;;;;;5093941;28;20123;-66
2023/01/01 11:14:56;;;;;;;5.85;1.15;;;11.30;99.90;;;;;;5093617;28;20109;-66
2023/01/01 11:17:31;;;;;;;10.10;1.30;;;11.30;99.90;;;;;;5092655;28;20519;-66
2023/01/01 11:19:58;;;;;;;6.10;1.10;;;11.30;99.90;;;;;;5093875;28;20048;-66
2023/01/01 11:22:38;;;;;;;9.10;1.30;;;11.30;99.90;;;;;;5075515;28;20056;-66
2023/01/01 11:25:27;;;;;;;3.75;0.80;;;11.30;99.90;;;;;;5075134;28;20047;-66
2023/01/01 11:28:22;;;;;;;7.22;0.77;;;11.30;99.90;;;;;;5075545;28;20036;-66
2023/01/01 11:31:06;;;;;;;4.85;0.90;;;11.30;99.90;;;;;;5066245;28;20058;-65
2023/01/01 11:33:43;;;;;;;5.85;0.88;;;11.30;99.90;;;;;;5093099;28;20507;-66
2023/01/01 11:36:09;;;;;;;7.07;0.95;;;11.30;99.90;;;;;;5075956;28;20051;-66
2023/01/01 11:38:35;;;;;;;7.22;1.23;;;11.30;99.90;;;;;;5058251;28;20048;-65
2023/01/01 11:41:05;;;;;;;6.03;0.73;;;11.40;99.90;;;;;;5094308;28;20043;-65
2023/01/01 11:43:43;;;;;;;7.82;1.08;;;11.40;99.90;;;;;;5096856;28;20044;-66
2023/01/01 11:46:13;;;;;;;2.95;0.70;;;11.40;99.90;;;;;;5096817;28;20040;-65
2023/01/01 11:48:42;;;;;;;6.38;1.05;;;11.40;99.90;;;;;;5096752;28;20052;-66
2023/01/01 11:51:26;;;;;;;7.25;1.38;;;11.40;99.90;;;;;;5096564;28;20056;-66
2023/01/01 11:54:16;;;;;;;6.15;0.70;;;11.40;99.90;;;;;;5096573;28;20480;-65
2023/01/01 11:56:43;;;;;;;7.15;1.00;;;11.40;99.90;;;;;;5078201;28;20081;-66
2023/01/01 11:59:17;;;;;;;6.55;1.27;;;11.40;99.90;;;;;;5096621;28;20093;-65
2023/01/01 12:01:50;;;;;;;6.50;1.15;;;11.50;99.90;;;;;;5097087;28;20131;-65
2023/01/01 12:04:51;;;;;;;;;;;11.50;99.90;;;;;;5097189;28;20050;-66
2023/01/01 12:07:30;;;;;;;8.77;1.55;;;11.50;99.90;;;;;;5033991;28;20378;-65
2023/01/01 12:10:20;;;;;;;9.70;1.15;;;11.60;99.90;;;;;;5071483;28;20056;-66
2023/01/01 12:12:57;;;;;;;5.97;0.90;;;11.60;99.90;;;;;;5066271;28;20056;-66
2023/01/01 12:15:34;;;;;;;6.93;0.90;;;11.60;99.90;;;;;;5079214;28;20110;-65
2023/01/01 12:18:11;;;;;;;5.65;0.75;;;11.70;99.90;;;;;;5077967;28;20047;-65
2023/01/01 12:20:56;;;;;;;8.23;1.00;;;11.70;99.90;;;;;;5096185;28;20109;-65
2023/01/01 12:23:22;;;;;;;8.27;1.10;;;11.80;99.90;;;;;;5096918;28;20071;-65
2023/01/01 12:26:32;;;;;;;7.40;0.95;;;11.80;99.90;;;;;;5078005;28;20040;-65
2023/01/01 12:29:09;;;;;;;10.38;1.50;;;11.80;99.90;;;;;;5058034;28;20056;-66
2023/01/01 12:32:07;;;;;;;5.00;0.93;;;11.80;99.90;;;;;;5095937;28;20044;-65
2023/01/01 12:34:49;;;;;;;8.15;1.17;;;11.90;99.90;;;;;;5090225;28;20067;-65
2023/01/01 12:37:33;;;;;;;9.07;1.38;;;11.90;99.90;;;;;;5095746;28;20105;-65
2023/01/01 12:40:20;;;;;;;5.78;0.93;;;11.90;99.90;;;;;;5096549;28;20509;-65
2023/01/01 12:43:01;;;;;;;5.53;1.10;;;11.90;99.90;;;;;;5095699;28;20043;-65
2023/01/01 12:46:03;;;;;;;5.70;1.00;;;11.90;99.90;;;;;;5095677;28;20047;-65
2023/01/01 12:48:54;;;;;;;9.02;1.20;;;11.80;99.90;;;;;;5095634;28;20051;-65
2023/01/01 12:51:29;;;;;;;8.98;1.23;;;11.90;99.90;;;;;;5094919;28;20064;-65
2023/01/01 12:54:14;;;;;;;6.63;0.90;;;11.90;99.90;;;;;;5095450;28;20134;-65
2023/01/01 12:57:19;;;;;;;7.57;1.00;;;11.80;99.90;;;;;;5095433;28;20036;-65
2023/01/01 12:59:48;;;;;;;7.40;0.90;;;11.80;99.90;;;;;;5095648;28;20123;-65
2023/01/01 13:02:27;;;;;;;5.70;1.00;;;11.80;99.90;;;;;;5095628;28;20121;-65
2023/01/01 13:05:00;;;;;;;7.55;1.08;;;11.90;99.90;;;;;;5077475;28;20048;-64
2023/01/01 13:07:30;;;;;;;6.82;0.98;;;11.90;99.90;;;;;;5095845;28;20036;-65